Flight Track Log - Related Links

Times and Time Zones

All times are in EDT time to prevent confusion due to time zone crossing. See the N182BP flight status page for this flight to view local times or setup timezone preferences in your user account.

Time Position Orientation Groundspeed Altitude Reporting Facility
EDT Latitude Longitude Course Direction KTS MPH feet Rate Location/Type
Mon 09:30:50 AM 40.0525 -90.8036 340° North 91 105 3,400  Level Chicago Center
Mon 09:31:52 AM 40.0703 -90.8211 323° Northwest 85 98 3,900 484 Climbing Chicago Center
Mon 09:32:54 AM 40.0917 -90.8403 326° Northwest 89 102 4,400 484 Climbing Chicago Center
Mon 09:33:56 AM 40.1103 -90.8639 316° Northwest 92 106 4,900 435 Climbing Chicago Center
Mon 09:34:58 AM 40.1333 -90.8822 329° Northwest 96 110 5,300 435 Climbing Chicago Center
Mon 09:36:00 AM 40.1767 -90.8926 340° North  Level Estimated
Mon 09:36:00 AM 40.1669 -90.8922 347° North 100 115 5,800  Level Chicago Center
Mon 09:37:02 AM 40.1958 -90.9019 346° North 106 122 6,300 435 Climbing Chicago Center
Mon 09:38:04 AM 40.2225 -90.9136 342° North 104 120 6,700 339 Climbing Chicago Center
Mon 09:39:06 AM 40.2508 -90.9283 338° Northwest 105 121 7,000 378 Climbing Chicago Center
Mon 09:40:11 AM 40.2858 -90.9392 347° North 104 120 7,500 378 Climbing Kansas City Center
Mon 09:41:13 AM 40.3125 -90.9486 345° North 102 117 7,800 145 Climbing Kansas City Center
Mon 09:42:15 AM 40.3411 -90.9581 346° North 102 117 7,800 48 Level Kansas City Center
Mon 09:43:17 AM 40.3750 -90.9711 344° North 117 135 7,900 50 Climbing Kansas City Center
Mon 09:44:16 AM 40.4097 -90.9864 341° North 130 150 7,900  Level Chicago Center
Mon 09:45:18 AM 40.4408 -90.9989 343° North 124 143 7,900  Level Chicago Center
Mon 09:46:20 AM 40.4775 -91.0139 343° North 129 148 7,900  Level Chicago Center
Mon 09:47:22 AM 40.5153 -91.0214 351° North 135 155 7,900  Level Chicago Center
Mon 09:48:24 AM 40.5608 -91.0225 359° North 136 157 7,900  Level Chicago Center
Mon 09:49:26 AM 40.5972 -91.0256 356° North 133 153 7,900  Level Chicago Center
Mon 09:50:28 AM 40.6303 -91.0458 335° Northwest 128 147 7,900  Level Chicago Center
Mon 09:51:30 AM 40.6639 -91.0619 340° North 128 147 7,900  Level Chicago Center
Mon 09:52:32 AM 40.6983 -91.0778 341° North 128 147 7,900  Level Chicago Center
Mon 09:53:35 AM 40.7336 -91.0950 340° North 133 153 7,900  Level Chicago Center
Mon 09:54:37 AM 40.7736 -91.1139 340° North 129 148 7,900  Level Chicago Center
Mon 09:55:39 AM 40.8069 -91.1306 339° North 127 146 7,900  Level Chicago Center
Mon 09:56:41 AM 40.8425 -91.1475 340° North 134 154 7,900  Level Chicago Center
Mon 09:57:43 AM 40.8761 -91.1647 339° North 130 150 7,900  Level Chicago Center
Mon 09:58:45 AM 40.9100 -91.1797 342° North 129 148 7,900  Level Chicago Center
Mon 09:59:48 AM 40.9439 -91.1964 340° North 132 152 7,900  Level Chicago Center
Mon 10:00:50 AM 40.9847 -91.2167 339° North 132 152 7,900  Level Chicago Center
Mon 10:01:52 AM 41.0181 -91.2331 340° North 129 148 7,900  Level Chicago Center
Mon 10:02:55 AM 41.0533 -91.2497 340° North 132 152 7,900  Level Chicago Center
Mon 10:03:57 AM 41.0869 -91.2650 341° North 130 150 7,900  Level Chicago Center
Mon 10:04:59 AM 41.1203 -91.2836 337° Northwest 130 150 7,900  Level Chicago Center
Mon 10:06:01 AM 41.1542 -91.2992 341° North 130 150 7,900  Level Chicago Center
Mon 10:07:03 AM 41.1944 -91.3194 339° North 129 148 7,900  Level Chicago Center
Mon 10:08:05 AM 41.2286 -91.3356 340° North 129 148 7,900 -48 Level Chicago Center
Mon 10:09:07 AM 41.2639 -91.3539 339° North 130 150 7,800 -48 Descending Chicago Center
Mon 10:10:09 AM 41.2969 -91.3706 339° North 128 147 7,800  Level Chicago Center
Mon 10:11:11 AM 41.3303 -91.3864 340° North 129 148 7,800  Level Chicago Center
Mon 10:12:13 AM 41.3642 -91.4031 340° North 130 150 7,800 48 Level Chicago Center
Mon 10:13:15 AM 41.4028 -91.4225 339° North 127 146 7,900 48 Climbing Chicago Center
Mon 10:14:17 AM 41.4347 -91.4372 341° North 123 142 7,900  Level Chicago Center
Mon 10:15:20 AM 41.4689 -91.4550 339° North 130 150 7,900  Level Chicago Center
Mon 10:16:22 AM 41.5014 -91.4711 340° North 128 147 7,900  Level Chicago Center
Mon 10:17:24 AM 41.5344 -91.4869 340° North 129 148 7,900  Level Chicago Center
Mon 10:18:26 AM 41.5744 -91.5053 341° North 128 147 7,900  Level Chicago Center
Mon 10:19:28 AM 41.6078 -91.5242 337° Northwest 130 150 7,900  Level Chicago Center
Mon 10:20:30 AM 41.6408 -91.5411 339° North 130 150 7,900  Level Chicago Center
Mon 10:21:32 AM 41.6742 -91.5572 340° North 128 147 7,900  Level Chicago Center
Mon 10:22:34 AM 41.7072 -91.5728 341° North 126 145 7,900  Level Chicago Center
Mon 10:23:36 AM 41.7478 -91.5936 339° North 132 152 7,900  Level Chicago Center
Mon 10:24:38 AM 41.7803 -91.6092 340° North 128 147 7,900  Level Chicago Center
Mon 10:25:40 AM 41.8142 -91.6261 340° North 131 151 7,900  Level Chicago Center
Mon 10:26:43 AM 41.8458 -91.6422 339° North 125 144 7,900  Level Chicago Center
Mon 10:27:45 AM 41.8789 -91.6592 339° North 127 146 7,900  Level Chicago Center
Mon 10:28:47 AM 41.9169 -91.6772 341° North 122 140 7,900  Level Chicago Center
Mon 10:29:49 AM 41.9497 -91.6939 339° North 126 145 7,900  Level Chicago Center
Mon 10:30:51 AM 41.9822 -91.7108 339° North 126 145 7,900  Level Chicago Center
Mon 10:31:53 AM 42.0144 -91.7281 338° Northwest 126 145 7,900  Level Chicago Center
Mon 10:32:55 AM 42.0492 -91.7433 342° North 130 150 7,900  Level Chicago Center
Mon 10:33:57 AM 42.0881 -91.7650 338° Northwest 129 148 7,900  Level Chicago Center
Mon 10:34:59 AM 42.1214 -91.7808 341° North 129 148 7,900  Level Chicago Center
Mon 10:36:01 AM 42.1533 -91.7981 338° Northwest 124 143 7,900  Level Chicago Center
Mon 10:37:03 AM 42.1858 -91.8122 342° North 124 143 7,900  Level Chicago Center
Mon 10:38:06 AM 42.2189 -91.8289 340° North 126 145 7,900  Level Chicago Center
Mon 10:39:08 AM 42.2592 -91.8494 339° North 129 148 7,900  Level Chicago Center
Mon 10:40:10 AM 42.2917 -91.8667 339° North 127 146 7,900  Level Chicago Center
Mon 10:41:12 AM 42.3236 -91.8839 338° Northwest 125 144 7,900  Level Chicago Center
Mon 10:42:14 AM 42.3547 -91.8994 340° North 123 142 7,900  Level Chicago Center
Mon 10:43:16 AM 42.3872 -91.9158 340° North 123 142 7,900  Level Chicago Center
Mon 10:44:18 AM 42.4278 -91.9347 341° North 126 145 7,900  Level Chicago Center
Mon 10:45:20 AM 42.4594 -91.9528 337° Northwest 126 145 7,900  Level Chicago Center
Mon 10:46:22 AM 42.4922 -91.9697 339° North 126 145 7,900  Level Chicago Center
Mon 10:47:24 AM 42.5247 -91.9861 340° North 126 145 7,900  Level Chicago Center
Mon 10:48:26 AM 42.5564 -92.0028 339° North 124 143 7,900  Level Chicago Center
Mon 10:49:28 AM 42.5950 -92.0225 339° North 124 143 7,900  Level Chicago Center
Mon 10:50:30 AM 42.6269 -92.0392 339° North 124 143 7,900  Level Chicago Center
Mon 10:51:32 AM 42.6586 -92.0567 338° Northwest 124 143 7,900  Level Chicago Center
Mon 10:52:34 AM 42.6906 -92.0728 340° North 123 142 7,900  Level Chicago Center
Mon 10:53:36 AM 42.7228 -92.0892 340° North 124 143 7,900  Level Chicago Center
Mon 10:54:38 AM 42.7617 -92.1097 339° North 125 144 7,900  Level Chicago Center
Mon 10:55:40 AM 42.7942 -92.1278 338° Northwest 126 145 7,900  Level Chicago Center
Mon 10:56:42 AM 42.8272 -92.1442 340° North 126 145 7,900  Level Chicago Center
Mon 10:57:44 AM 42.8594 -92.1611 339° North 126 145 7,900  Level Chicago Center
Mon 10:58:46 AM 42.8931 -92.1789 339° North 127 146 7,900  Level Chicago Center
Mon 10:59:48 AM 42.9250 -92.1958 339° North 127 146 7,900  Level Chicago Center
Mon 11:00:50 AM 42.9633 -92.2169 338° Northwest 126 145 7,900  Level Chicago Center
Mon 11:01:52 AM 42.9944 -92.2333 339° North 123 142 7,900  Level Chicago Center
Mon 11:02:54 AM 43.0256 -92.2508 338° Northwest 123 142 7,900  Level Chicago Center
Mon 11:03:56 AM 43.0578 -92.2675 339° North 123 142 7,900  Level Chicago Center
Mon 11:04:58 AM 43.0894 -92.2844 339° North 123 142 7,900  Level Chicago Center
Mon 11:06:00 AM 43.1275 -92.3053 338° Northwest 123 142 7,900  Level Chicago Center
Mon 11:07:02 AM 43.1600 -92.3217 340° North 124 143 7,900  Level Chicago Center
Mon 11:08:04 AM 43.1908 -92.3386 338° Northwest 122 140 7,900  Level Chicago Center
Mon 11:09:06 AM 43.2217 -92.3558 338° Northwest 121 139 7,900  Level Chicago Center
Mon 11:10:08 AM 43.2531 -92.3717 340° North 121 139 7,900  Level Chicago Center
Mon 11:11:10 AM 43.2914 -92.3928 338° Northwest 123 142 7,900  Level Chicago Center
Mon 11:12:11 AM 43.3219 -92.4097 338° Northwest 121 139 7,900  Level Chicago Center
Mon 11:13:13 AM 43.3528 -92.4261 339° North 121 139 7,900  Level Chicago Center
Mon 11:14:15 AM 43.3844 -92.4419 340° North 120 138 7,900  Level Chicago Center
Mon 11:15:17 AM 43.4161 -92.4592 338° Northwest 122 140 7,900  Level Chicago Center
Mon 11:16:19 AM 43.4553 -92.4814 338° Northwest 125 144 7,900  Level Chicago Center
Mon 11:17:21 AM 43.4861 -92.4950 342° North 122 140 7,900  Level Chicago Center
Mon 11:18:23 AM 43.5175 -92.5144 336° Northwest 123 142 7,900  Level Chicago Center
Mon 11:19:25 AM 43.5492 -92.5314 339° North 123 142 7,900  Level Chicago Center
Mon 11:20:27 AM 43.5800 -92.5478 339° North 121 139 7,900  Level Chicago Center
Mon 11:21:28 AM 43.6183 -92.5697 337° Northwest 123 142 7,900  Level Chicago Center
Mon 11:22:30 AM 43.6494 -92.5853 340° North 122 140 7,900  Level Chicago Center
Mon 11:23:32 AM 43.6811 -92.6039 337° Northwest 123 142 7,900  Level Chicago Center
Mon 11:24:34 AM 43.7117 -92.6211 338° Northwest 122 140 7,900 -207 Level Chicago Center
Mon 11:25:57 AM 43.7686 -92.6392 347° North 139 160 7,400 -414 Descending Minneapolis Center
Mon 11:26:59 AM 43.8069 -92.6625 336° Northwest 141 162 6,900 -439 Descending Minneapolis Center
Mon 11:28:00 AM 43.8386 -92.6778 341° North 145 167 6,500 -435 Descending Minneapolis Center
Mon 11:29:03 AM 43.8833 -92.7031 338° Northwest 137 158 6,000 -288 Descending Minneapolis Center
Mon 11:30:05 AM 43.9169 -92.7203 340° North 130 150 5,900 -49 Descending Minneapolis Center
Mon 11:31:06 AM 43.9431 -92.7344 339° North 122 140 5,900  Level Minneapolis Center
Mon 11:32:09 AM 43.9811 -92.7564 337° Northwest 121 139 5,900  Level Minneapolis Center
Mon 11:33:11 AM 44.0153 -92.7739 340° North 123 142 5,900  Level Minneapolis Center
Mon 11:34:13 AM 44.0469 -92.7914 338° Northwest 122 140 5,900  Level Minneapolis Center
Mon 11:35:15 AM 44.0736 -92.8067 338° Northwest 123 142 5,900  Level Minneapolis Center
Mon 11:36:17 AM 44.1125 -92.8275 339° North 121 139 5,900  Level Minneapolis Center
Mon 11:37:19 AM 44.1386 -92.8417 339° North 121 139 5,900  Level Minneapolis Center
Mon 11:38:21 AM 44.1783 -92.8631 339° North 124 143 5,900  Level Minneapolis Center
Mon 11:39:23 AM 44.2133 -92.8828 338° Northwest 126 145 5,900  Level Minneapolis Center
Mon 11:40:25 AM 44.2453 -92.9000 339° North 125 144 5,900  Level Minneapolis Center
Mon 11:41:27 AM 44.2731 -92.9275 325° Northwest 113 130 5,900  Level Minneapolis Center
Mon 11:42:29 AM 44.2958 -92.9558 318° Northwest 113 130 5,900 -145 Level Minneapolis Center
Mon 11:43:31 AM 44.3219 -92.9889 318° Northwest 121 139 5,600 -387 Descending Minneapolis Center
Mon 11:44:33 AM 44.3450 -93.0186 317° Northwest 127 146 5,100 -484 Descending Minneapolis Center
Mon 11:45:35 AM 44.3750 -93.0619 314° West 129 148 4,600 -484 Descending Minneapolis Center
Mon 11:46:37 AM 44.4008 -93.0992 314° West 133 153 4,100 -387 Descending Minneapolis Center
Mon 11:47:39 AM 44.4261 -93.1367 313° West 133 153 3,800 -132 Descending Minneapolis Center
Mon 11:48:53 AM 44.4481 -93.1728 310° West 122 140 3,800 -41 Level Minneapolis Center
Mon 11:50:07 AM 44.4756 -93.2122 314° West 117 135 3,700 44 Descending Minneapolis Center
Mon 11:51:10 AM 44.5019 -93.2497 315° West 114 131 3,900 96 Climbing Minneapolis Center
Mon 11:52:12 AM 44.5297 -93.2883 315° West 117 135 3,900 48 Level Minneapolis Center
Mon 11:53:14 AM 44.5531 -93.3206 315° West 117 135 4,000  Climbing Minneapolis Center
Mon 11:54:16 AM 44.5764 -93.3528 315° West 118 136 3,900 -48 Descending Minneapolis Center
Mon 11:55:18 AM 44.5997 -93.3847 316° Northwest 117 135 3,900  Level Minneapolis Center
Mon 11:56:20 AM 44.6231 -93.4181 315° West 119 137 3,900  Level Minneapolis Center
Mon 11:57:22 AM 44.6469 -93.4519 315° West 122 140 3,900  Level Minneapolis Center
Mon 11:58:24 AM 44.6711 -93.4856 315° West 121 139 3,900 48 Level Minneapolis Center
Mon 11:59:26 AM 44.6997 -93.5250 316° Northwest 120 138 4,000 48 Climbing Minneapolis Center
Mon 12:00:28 PM 44.7297 -93.5536 326° Northwest 130 150 4,000  Level Minneapolis Center
Mon 12:01:30 PM 44.7594 -93.5828 325° Northwest 130 150 4,000  Level Minneapolis Center
Mon 12:02:32 PM 44.7889 -93.6125 324° Northwest 130 150 4,000 -48 Level Minneapolis Center
Mon 12:03:34 PM 44.8131 -93.6364 325° Northwest 132 152 3,900 -242 Descending Minneapolis Center
Mon 12:04:36 PM 44.8558 -93.6608 338° Northwest 143 165 3,500 -387 Descending Minneapolis Center
Mon 12:05:38 PM 44.8994 -93.6603 North 155 178 3,100 -290 Descending Minneapolis Center
Mon 12:06:40 PM 44.9494 -93.6558 North 150 173 2,900 -97 Descending Minneapolis Center
Mon 12:07:42 PM 44.9878 -93.6578 358° North 139 160 2,900  Level Minneapolis Center
Mon 12:08:44 PM 45.0253 -93.6569 North 135 155 2,900  Level Minneapolis Center
Mon 12:09:46 PM 45.0631 -93.6536 North 136 157 2,900  Level Minneapolis Center
Mon 12:10:48 PM 45.1006 -93.6553 358° North 135 155 2,900  Level Minneapolis Center
Mon 12:11:50 PM 45.1386 -93.6500 North 137 158 2,900  Level Minneapolis Center
Mon 12:12:52 PM 45.1661 -93.5992 52° Northeast 136 157 2,900  Level Minneapolis Center
Mon 12:13:54 PM 45.1858 -93.5544 58° Northeast 135 155 2,900 -97 Level Minneapolis Center
Mon 12:14:56 PM 45.1994 -93.5100 66° East 127 146 2,700 -242 Descending Minneapolis Center
Mon 12:15:58 PM 45.1792 -93.4836 137° Southeast 100 115 2,400 -176 Descending Minneapolis Center
Mon 12:17:12 PM 45.1597 -93.4650 146° Southeast 85 98 2,300  Descending Minneapolis Center
Mon 12:18:14 PM 45.1397 -93.4428 142° Southeast 76 87 2,400 -97 Climbing Minneapolis Center
Mon 12:19:16 PM 45.1178 -93.4172 141° Southeast 87 100 2,100 -435 Descending Minneapolis Center
Mon 12:20:18 PM 45.0989 -93.3950 140° Southeast 89 102 1,500 -435 Descending Minneapolis Center
Mon 12:21:20 PM 45.0808 -93.3756 143° Southeast 83 96 1,200 53 Descending Minneapolis Center
Mon 12:23:00 PM 45.0285 -93.3439 157° South  Level FlightAware Approximate
Mon 12:30:00 PM 44.8089 -93.2116 157° South  Level FlightAware Approximate
Mon 12:31:00 PM 44.7775 -93.1928 157° South  Level FlightAware Approximate
Mon 12:32:00 PM 44.7461 -93.1740 157° South  Level FlightAware Approximate
Mon 12:33:00 PM 44.7147 -93.1553 157° South  Level FlightAware Approximate
Mon 12:34:00 PM 44.6833 -93.1365 157° South  Level FlightAware Approximate
Mon 12:35:00 PM 44.6518 -93.1178 157° South  Level FlightAware Approximate
Mon 12:36:00 PM 44.6803 -93.1339 338° Northwest  Level FlightAware Approximate
Mon 12:37:00 PM 44.7119 -93.1520 338° Northwest  Level FlightAware Approximate
Mon 12:38:00 PM 44.7435 -93.1701 338° Northwest  Level FlightAware Approximate
Mon 12:39:00 PM 44.7753 -93.1876 340° North  Level FlightAware Approximate
Mon 12:40:00 PM 44.8074 -93.2037 340° North  Level FlightAware Approximate
Mon 12:41:00 PM 44.8394 -93.2205 336° Northwest  Level FlightAware Approximate
Mon 12:42:00 PM 44.8705 -93.2402 336° Northwest  Level FlightAware Approximate
Mon 12:43:00 PM 44.9016 -93.2600 336° Northwest  Level FlightAware Approximate
Mon 12:44:00 PM 44.9327 -93.2798 336° Northwest  Level FlightAware Approximate
Mon 12:44:42 PM 45.0500 -93.2833 90° East 88 101 2,800  Level Minneapolis TRACON
Mon 12:45:00 PM 44.9638 -93.2996 336° Northwest  Level FlightAware Approximate
Mon 12:46:00 PM 44.9949 -93.3194 336° Northwest  Level FlightAware Approximate
Mon 12:46:09 PM 45.0228 -93.2317 127° Southeast 112 129 2,900  Level Minneapolis Center
Mon 12:47:00 PM 45.0263 -93.3382 341° North  Level FlightAware Approximate
Mon 12:47:11 PM 45.0047 -93.1931 123° Southeast 118 136 2,900  Level Minneapolis Center
Mon 12:48:00 PM 45.0500 -93.3500 341° North  Level FlightAware Approximate
Mon 12:48:13 PM 44.9908 -93.1628 123° Southeast 116 133 2,900  Level Minneapolis Center
Mon 12:49:15 PM 44.9678 -93.1169 125° Southeast 120 138 2,900  Level Minneapolis Center
Mon 12:50:17 PM 44.9492 -93.0803 126° Southeast 115 132 2,900  Level Minneapolis Center
Mon 12:51:19 PM 44.9258 -93.0367 127° Southeast 117 135 2,900  Level Minneapolis Center
Mon 12:52:21 PM 44.9058 -93.0008 128° Southeast 116 133 2,900  Level Minneapolis Center
Mon 12:53:24 PM 44.8853 -92.9644 129° Southeast 118 136 2,900  Level Minneapolis Center
Mon 12:54:26 PM 44.8583 -92.9486 157° South 110 127 2,900  Level Minneapolis Center
Mon 12:55:28 PM 44.8292 -92.9494 181° South 104 120 2,900  Level Minneapolis Center
Mon 12:56:30 PM 44.7994 -92.9394 167° South 109 125 2,900  Level Minneapolis Center
Mon 12:57:32 PM 44.7647 -92.9306 170° South 105 121 2,900 194 Level Minneapolis Center
Mon 12:58:34 PM 44.7361 -92.9219 168° South 104 120 3,300 387 Climbing Minneapolis Center
Mon 12:59:36 PM 44.7089 -92.9156 171° South 99 114 3,700 387 Climbing Minneapolis Center
Mon 01:00:38 PM 44.6811 -92.9064 167° South 102 117 4,100 387 Climbing Minneapolis Center
Mon 01:01:40 PM 44.6519 -92.8975 168° South 106 122 4,500 435 Climbing Minneapolis Center
Mon 01:02:42 PM 44.6228 -92.8892 169° South 109 125 5,000 484 Climbing Minneapolis Center
Mon 01:03:44 PM 44.5956 -92.8844 173° South 99 114 5,500 528 Climbing Minneapolis Center
Mon 01:04:47 PM 44.5644 -92.8778 171° South 96 110 6,100 528 Climbing Minneapolis Center
Mon 01:05:49 PM 44.5381 -92.8722 171° South 97 112 6,600 484 Climbing Minneapolis Center
Mon 01:06:51 PM 44.5122 -92.8672 172° South 94 108 7,100 484 Climbing Minneapolis Center
Mon 01:07:53 PM 44.4867 -92.8583 166° South 94 108 7,600 484 Climbing Minneapolis Center
Mon 01:08:55 PM 44.4619 -92.8519 170° South 91 105 8,100 484 Climbing Minneapolis Center
Mon 01:09:57 PM 44.4381 -92.8472 172° South 87 100 8,600 387 Climbing Minneapolis Center
Mon 01:10:59 PM 44.4097 -92.8408 171° South 85 98 8,900 145 Climbing Minneapolis Center
Mon 01:12:01 PM 44.3811 -92.8406 180° South 101 116 8,900  Level Minneapolis Center
Mon 01:13:03 PM 44.3494 -92.8289 165° South 117 135 8,900 48 Level Minneapolis Center
Mon 01:14:05 PM 44.3178 -92.8194 168° South 110 127 9,000 48 Climbing Minneapolis Center
Mon 01:15:07 PM 44.2850 -92.8122 171° South 111 128 9,000  Level Minneapolis Center
Mon 01:16:10 PM 44.2544 -92.8047 170° South 113 130 9,000  Level Minneapolis Center
Mon 01:17:12 PM 44.2217 -92.7964 170° South 112 129 9,000  Level Minneapolis Center
Mon 01:18:14 PM 44.1897 -92.7886 170° South 110 127 9,000  Level Minneapolis Center
Mon 01:19:16 PM 44.1597 -92.7817 171° South 111 128 9,000  Level Minneapolis Center
Mon 01:20:18 PM 44.1281 -92.7739 170° South 108 124 9,000  Level Minneapolis Center
Mon 01:21:20 PM 44.0975 -92.7667 170° South 114 131 9,000  Level Minneapolis Center
Mon 01:22:34 PM 44.0661 -92.7592 170° South 108 124 9,000  Level Minneapolis Center
Mon 01:23:37 PM 44.0289 -92.7497 170° South 109 125 9,000  Level Minneapolis Center
Mon 01:24:39 PM 43.9994 -92.7425 170° South 108 124 9,000  Level Minneapolis Center
Mon 01:25:41 PM 43.9675 -92.7344 170° South 108 124 9,000  Level Minneapolis Center
Mon 01:26:55 PM 43.9389 -92.7272 170° South 106 122 9,000  Level Minneapolis Center
Mon 01:27:57 PM 43.9078 -92.7197 170° South 106 122 9,000  Level Minneapolis Center
Mon 01:29:00 PM 43.8717 -92.7097 169° South 107 123 9,000  Level Minneapolis Center
Mon 01:30:02 PM 43.8394 -92.7036 172° South 109 125 9,000  Level Minneapolis Center
Mon 01:31:04 PM 43.8100 -92.6958 169° South 109 125 9,000  Level Minneapolis Center
Mon 01:32:06 PM 43.7775 -92.6886 171° South 110 127 9,000  Level Minneapolis Center
Mon 01:33:08 PM 43.7472 -92.6814 170° South 111 128 9,000  Level Minneapolis Center
Mon 01:34:10 PM 43.7142 -92.6739 171° South 112 129 9,000  Level Minneapolis Center
Mon 01:35:12 PM 43.6844 -92.6661 169° South 110 127 9,000  Level Minneapolis Center
Mon 01:36:14 PM 43.6514 -92.6581 170° South 112 129 9,000  Level Minneapolis Center
Mon 01:37:17 PM 43.6178 -92.6511 171° South 115 132 9,000  Level Minneapolis Center
Mon 01:38:18 PM 43.5944 -92.6447 169° South 107 123 9,000  Level Minneapolis Center
Mon 01:39:21 PM 43.5572 -92.6350 169° South 108 124 9,000  Level Minneapolis Center
Mon 01:40:23 PM 43.5267 -92.6286 171° South 110 127 9,000  Level Minneapolis Center
Mon 01:41:25 PM 43.4936 -92.6219 172° South 112 129 9,000  Level Minneapolis Center
Mon 01:42:27 PM 43.4628 -92.6131 168° South 114 131 9,000  Level Minneapolis Center
Mon 01:43:29 PM 43.4367 -92.6081 172° South 115 132 9,000  Level Minneapolis Center
Mon 01:44:31 PM 43.3975 -92.5989 170° South 117 135 9,000  Level Minneapolis Center
Mon 01:45:33 PM 43.3642 -92.5908 170° South 113 130 9,000  Level Minneapolis Center
Mon 01:46:35 PM 43.3331 -92.5839 171° South 114 131 9,000  Level Minneapolis Center
Mon 01:47:37 PM 43.3003 -92.5753 169° South 113 130 9,000  Level Minneapolis Center
Mon 01:48:39 PM 43.2753 -92.5675 167° South 111 128 9,000  Level Minneapolis Center
Mon 01:49:41 PM 43.2347 -92.5639 176° South 117 135 9,000  Level Minneapolis Center
Mon 01:50:44 PM 43.2042 -92.5539 167° South 116 133 9,000  Level Minneapolis Center
Mon 01:51:46 PM 43.1733 -92.5475 171° South 113 130 9,000 -97 Level Minneapolis Center
Mon 01:52:48 PM 43.1425 -92.5408 171° South 113 130 8,800 -339 Descending Minneapolis Center
Mon 01:53:50 PM 43.1078 -92.5322 170° South 123 142 8,300 -522 Descending Minneapolis Center
Mon 01:54:43 PM 43.0678 -92.5225 170° South 127 146 7,800 -470 Descending Chicago Center
Mon 01:55:45 PM 43.0317 -92.5156 172° South 131 151 7,400 -387 Descending Chicago Center
Mon 01:56:47 PM 42.9964 -92.5053 168° South 131 151 7,000 -484 Descending Chicago Center
Mon 01:57:49 PM 42.9547 -92.4964 171° South 129 148 6,400 -484 Descending Chicago Center
Mon 01:58:51 PM 42.9197 -92.4881 170° South 129 148 6,000 -339 Descending Chicago Center
Mon 01:59:53 PM 42.8856 -92.4792 169° South 128 147 5,700 -339 Descending Chicago Center
Mon 02:00:55 PM 42.8522 -92.4706 169° South 126 145 5,300 -336 Descending Chicago Center
Mon 02:01:58 PM 42.8192 -92.4628 170° South 124 143 5,000 -336 Descending Chicago Center
Mon 02:03:00 PM 42.7783 -92.4506 168° South 125 144 4,600 -435 Descending Chicago Center
Mon 02:04:02 PM 42.7436 -92.4383 166° South 127 146 4,100 -435 Descending Chicago Center
Mon 02:05:04 PM 42.7089 -92.4236 163° South 129 148 3,700 -387 Descending Chicago Center
Mon 02:06:06 PM 42.6739 -92.4100 164° South 131 151 3,300 -532 Descending Chicago Center
Mon 02:07:08 PM 42.6311 -92.3953 166° South 132 152 2,600 -774 Descending Chicago Center
Mon 02:08:10 PM 42.5967 -92.3947 179° South 131 151 1,700 -629 Descending Chicago Center
Mon 02:09:12 PM 42.5692 -92.3975 184° South 125 144 1,300 -387 Descending Chicago Center
Mon 02:11:00 PM 42.5500 -92.4000 180° South  Level FlightAware Approximate
Mon 02:18:00 PM 42.7543 -92.4745 180° South  Level Estimated
Mon 02:19:00 PM 42.7835 -92.4852 180° South  Level Estimated
Mon 02:20:00 PM 42.8126 -92.4959 180° South  Level Estimated
Mon 02:21:00 PM 42.8418 -92.5066 180° South  Level Estimated
Mon 02:22:00 PM 42.8710 -92.5174 180° South  Level Estimated
Mon 02:23:00 PM 42.9002 -92.5281 180° South  Level Estimated
Mon 02:24:00 PM 42.9293 -92.5388 180° South  Level Estimated
Mon 02:25:00 PM 42.9585 -92.5496 180° South  Level Estimated
Mon 02:26:00 PM 42.9877 -92.5603 180° South  Level Estimated
Mon 02:27:00 PM 43.0168 -92.5711 180° South  Level Estimated
Mon 02:28:00 PM 43.0460 -92.5819 180° South  Level Estimated
Mon 02:29:00 PM 43.0752 -92.5927 180° South  Level Estimated
Mon 02:30:00 PM 43.1044 -92.6035 180° South  Level Estimated
Mon 02:31:00 PM 43.1335 -92.6143 180° South  Level Estimated
Mon 02:32:00 PM 43.1627 -92.6251 180° South  Level Estimated
Mon 02:33:00 PM 43.1919 -92.6359 180° South  Level Estimated
Mon 02:34:00 PM 43.2210 -92.6468 180° South  Level Estimated
Mon 02:35:00 PM 43.2502 -92.6576 180° South  Level Estimated
Mon 02:36:00 PM 43.2793 -92.6685 180° South  Level Estimated
Mon 02:37:00 PM 43.3085 -92.6794 180° South  Level Estimated
Mon 02:38:00 PM 43.3377 -92.6902 180° South  Level Estimated
Mon 02:39:00 PM 43.3668 -92.7011 180° South  Level Estimated
Mon 02:40:00 PM 43.3960 -92.7120 180° South  Level Estimated
Mon 02:41:00 PM 43.4251 -92.7230 180° South  Level Estimated
Mon 02:42:00 PM 43.4543 -92.7339 180° South  Level Estimated
Mon 02:43:00 PM 43.4835 -92.7448 180° South  Level Estimated
Mon 02:44:00 PM 43.5126 -92.7558 180° South  Level Estimated
Mon 02:45:00 PM 43.5418 -92.7667 180° South  Level Estimated
Mon 02:46:00 PM 43.5709 -92.7777 180° South  Level Estimated
Mon 02:47:00 PM 43.6001 -92.7887 180° South  Level Estimated
Mon 02:48:00 PM 43.6292 -92.7997 180° South  Level Estimated
Mon 02:49:00 PM 43.6584 -92.8107 180° South  Level Estimated
Mon 02:50:00 PM 43.6875 -92.8217 180° South  Level Estimated
Mon 02:51:00 PM 43.7166 -92.8327 180° South  Level Estimated
Mon 02:52:00 PM 43.7458 -92.8437 180° South  Level Estimated
Mon 02:53:00 PM 43.7749 -92.8548 180° South  Level Estimated
Mon 02:54:00 PM 43.8041 -92.8658 180° South  Level Estimated
Mon 02:55:00 PM 43.8332 -92.8769 180° South  Level Estimated
Mon 02:56:00 PM 43.8624 -92.8880 180° South  Level Estimated
Mon 02:57:00 PM 43.8915 -92.8991 180° South  Level Estimated
Mon 02:58:00 PM 43.9206 -92.9102 180° South  Level Estimated
Mon 02:59:00 PM 43.9498 -92.9213 180° South  Level Estimated
Mon 03:00:00 PM 43.9789 -92.9324 180° South  Level Estimated
Mon 03:01:00 PM 44.0081 -92.9435 180° South  Level Estimated
Mon 03:02:00 PM 44.0372 -92.9547 180° South  Level Estimated
Mon 03:03:00 PM 44.0663 -92.9658 180° South  Level Estimated
Mon 03:04:00 PM 44.0955 -92.9770 180° South  Level Estimated
Mon 03:05:00 PM 44.1246 -92.9881 180° South  Level Estimated
Mon 03:06:00 PM 44.1537 -92.9993 180° South  Level Estimated
Mon 03:07:00 PM 44.1828 -93.0105 180° South  Level Estimated
Mon 03:08:00 PM 44.2120 -93.0217 180° South  Level Estimated
Mon 03:09:00 PM 44.2411 -93.0330 180° South  Level Estimated
Mon 03:10:00 PM 44.2702 -93.0442 180° South  Level Estimated
Mon 03:11:00 PM 44.2994 -93.0554 180° South  Level Estimated
Mon 03:12:00 PM 44.3285 -93.0667 180° South  Level Estimated
Mon 03:13:00 PM 44.3576 -93.0779 180° South  Level Estimated
Mon 03:14:00 PM 44.3867 -93.0892 180° South  Level Estimated
Mon 03:15:00 PM 44.4158 -93.1005 180° South  Level Estimated
Mon 03:16:00 PM 44.4450 -93.1118 180° South  Level Estimated
Mon 03:17:00 PM 44.4741 -93.1231 180° South  Level Estimated
Mon 03:18:00 PM 44.5032 -93.1344 180° South  Level Estimated
Mon 03:19:00 PM 44.5323 -93.1457 180° South  Level Estimated
Mon 03:20:00 PM 44.5614 -93.1571 180° South  Level Estimated
Mon 03:21:00 PM 44.5905 -93.1684 180° South  Level Estimated
Mon 03:22:00 PM 44.6196 -93.1798 180° South  Level Estimated
Mon 03:23:00 PM 44.6488 -93.1912 180° South  Level Estimated
Mon 03:24:00 PM 44.6779 -93.2026 180° South  Level Estimated
Mon 03:25:00 PM 44.7070 -93.2140 180° South  Level Estimated
Mon 03:26:00 PM 44.7361 -93.2254 180° South  Level Estimated
Mon 03:27:00 PM 44.7652 -93.2368 180° South  Level Estimated
Mon 03:28:00 PM 44.7943 -93.2482 180° South  Level Estimated

Login

Don't have an account? Register now (free) for customized features, flight alerts, and more!